Time;durP1;ratioP1;P1;durP2;ratioP2;P2;SDS_P1;SDS_P2;PMS_P1;PMS_P2;Temp;Humidity;BMP_temperature;BMP_pressure;BME280_temperature;BME280_humidity;BME280_pressure;Samples;Min_cycle;Max_cycle;Signal;HPM_P1;HPM_P2
2023/12/22 00:00:49;;;;;;;5.40;0.75;;;;;;;;;;5020319;28;20127;-72
2023/12/22 00:03:16;;;;;;;13.48;1.58;;;;;;;;;;5028401;28;20057;-71
2023/12/22 00:05:51;;;;;;;6.75;0.80;;;;;;;;;;5027105;28;20131;-73
2023/12/22 00:08:18;;;;;;;10.02;1.05;;;;;;;;;;5006213;28;20138;-72
2023/12/22 00:10:44;;;;;;;11.15;1.42;;;;;;;;;;5029408;28;20049;-70
2023/12/22 00:13:11;;;;;;;10.88;1.58;;;;;;;;;;5034271;28;20045;-68
2023/12/22 00:15:50;;;;;;;5.15;1.10;;;;;;;;;;5045126;28;20080;-69
2023/12/22 00:18:17;;;;;;;16.05;1.98;;;;;;;;;;5002607;28;20052;-68
2023/12/22 00:20:47;;;;;;;7.65;0.98;;;;;;;;;;5028338;28;20045;-73
2023/12/22 00:23:13;;;;;;;6.38;1.10;;;;;;;;;;5026024;28;20053;-69
2023/12/22 00:25:40;;;;;;;11.40;1.27;;;;;;;;;;5060140;28;20120;-73
2023/12/22 00:28:07;;;;;;;9.07;1.23;;;;;;;;;;5019337;28;20146;-66
2023/12/22 00:30:34;;;;;;;10.38;1.33;;;;;;;;;;5048310;28;20075;-72
2023/12/22 00:33:00;;;;;;;4.38;0.70;;;;;;;;;;5059264;28;20045;-70
2023/12/22 00:35:27;;;;;;;9.85;1.10;;;;;;;;;;5027210;28;20049;-67
2023/12/22 00:37:56;;;;;;;1.65;0.55;;;;;;;;;;5014007;28;20143;-72
2023/12/22 00:40:22;;;;;;;;;;;;;;;;;;5060243;28;20049;-68
2023/12/22 00:42:49;;;;;;;2.38;0.75;;;;;;;;;;5027983;28;19925;-70
2023/12/22 00:45:16;;;;;;;1.58;0.75;;;;;;;;;;5042960;28;20049;-70
2023/12/22 00:47:42;;;;;;;4.60;0.50;;;;;;;;;;5021380;28;20076;-75
2023/12/22 00:50:10;;;;;;;3.05;0.50;;;;;;;;;;5038232;28;20130;-67
2023/12/22 00:52:36;;;;;;;3.50;0.63;;;;;;;;;;5026179;28;20067;-69
2023/12/22 00:55:05;;;;;;;4.25;0.75;;;;;;;;;;5024058;28;20140;-67
2023/12/22 00:57:32;;;;;;;;;;;;;;;;;;5002582;28;20102;-78
2023/12/22 00:59:58;;;;;;;1.33;0.38;;;;;;;;;;5021796;28;19955;-70
2023/12/22 01:02:25;;;;;;;3.10;0.70;;;;;;;;;;5055057;28;20200;-76
2023/12/22 01:04:52;;;;;;;2.03;0.40;;;;;;;;;;5040161;28;20119;-71
2023/12/22 01:07:18;;;;;;;3.55;0.88;;;;;;;;;;4992078;28;20050;-69
2023/12/22 01:09:45;;;;;;;0.10;0.10;;;;;;;;;;5005641;28;20777;-72
2023/12/22 01:12:13;;;;;;;1.52;0.70;;;;;;;;;;5030773;28;20376;-70
2023/12/22 01:14:40;;;;;;;4.15;0.77;;;;;;;;;;5015256;28;20044;-74
2023/12/22 01:17:07;;;;;;;5.93;0.75;;;;;;;;;;5020421;28;20063;-71
2023/12/22 01:19:34;;;;;;;4.90;1.05;;;;;;;;;;4998935;28;20045;-74
2023/12/22 01:22:00;;;;;;;2.53;0.60;;;;;;;;;;5001270;28;20062;-72
2023/12/22 01:24:27;;;;;;;5.45;0.85;;;;;;;;;;5032635;28;20053;-67
2023/12/22 01:26:53;;;;;;;2.60;0.52;;;;;;;;;;5021095;28;20064;-78
2023/12/22 01:29:21;;;;;;;3.53;0.38;;;;;;;;;;5035752;28;20057;-72
2023/12/22 01:31:48;;;;;;;12.25;1.30;;;;;;;;;;5006147;28;20049;-72
2023/12/22 01:34:15;;;;;;;10.30;1.25;;;;;;;;;;5006195;28;20060;-70
2023/12/22 01:36:42;;;;;;;3.65;0.68;;;;;;;;;;5018040;28;20076;-81
2023/12/22 01:39:09;;;;;;;3.30;0.52;;;;;;;;;;5004695;28;20079;-71
2023/12/22 01:41:35;;;;;;;4.15;0.77;;;;;;;;;;5002875;28;20049;-74
2023/12/22 01:44:02;;;;;;;2.72;0.73;;;;;;;;;;5007750;28;20049;-72
2023/12/22 01:46:31;;;;;;;2.65;0.50;;;;;;;;;;5006140;28;20165;-67
2023/12/22 01:48:57;;;;;;;;;;;;;;;;;;5023430;28;20064;-71
2023/12/22 01:51:24;;;;;;;5.82;0.75;;;;;;;;;;5006047;28;19924;-75
2023/12/22 01:53:52;;;;;;;12.38;0.85;;;;;;;;;;5003649;28;20045;-76
2023/12/22 01:56:19;;;;;;;4.80;0.90;;;;;;;;;;5001714;28;20057;-72
2023/12/22 01:58:46;;;;;;;5.57;0.90;;;;;;;;;;5036131;28;20045;-73
2023/12/22 02:01:14;;;;;;;3.60;0.73;;;;;;;;;;5006339;28;20049;-76
2023/12/22 02:03:42;;;;;;;4.95;0.65;;;;;;;;;;5023468;28;20129;-72
2023/12/22 02:06:09;;;;;;;4.97;0.95;;;;;;;;;;4998557;28;20295;-79
2023/12/22 02:08:36;;;;;;;7.85;1.13;;;;;;;;;;5022945;28;20053;-69
2023/12/22 02:11:03;;;;;;;7.20;1.13;;;;;;;;;;5020823;28;20155;-78
2023/12/22 02:13:30;;;;;;;6.47;1.10;;;;;;;;;;5006725;28;20121;-73
2023/12/22 02:16:02;;;;;;;3.03;0.82;;;;;;;;;;4999369;28;20139;-74
2023/12/22 02:18:34;;;;;;;9.07;1.33;;;;;;;;;;5029068;28;20061;-75
2023/12/22 02:21:03;;;;;;;6.03;1.25;;;;;;;;;;5000631;28;20149;-78
2023/12/22 02:23:31;;;;;;;5.63;0.98;;;;;;;;;;5018144;28;20077;-70
2023/12/22 02:26:13;;;;;;;6.65;0.80;;;;;;;;;;4996402;28;20056;-72
2023/12/22 02:28:41;;;;;;;5.88;0.77;;;;;;;;;;4996081;28;20077;-73
2023/12/22 02:31:18;;;;;;;5.88;1.08;;;;;;;;;;5039261;28;20072;-75
2023/12/22 02:33:47;;;;;;;5.50;1.40;;;;;;;;;;5032405;28;20057;-71
2023/12/22 02:36:16;;;;;;;5.63;0.95;;;;;;;;;;5002384;28;20113;-70
2023/12/22 02:38:46;;;;;;;3.45;0.70;;;;;;;;;;5012727;28;20156;-78
2023/12/22 02:41:13;;;;;;;7.18;1.27;;;;;;;;;;5032444;28;20068;-75
2023/12/22 02:43:40;;;;;;;10.98;2.15;;;;;;;;;;5035815;28;20045;-69
2023/12/22 02:46:14;;;;;;;9.18;1.17;;;;;;;;;;4997098;28;20052;-72
2023/12/22 02:48:41;;;;;;;15.43;1.40;;;;;;;;;;4989798;28;20060;-68
2023/12/22 02:51:07;;;;;;;12.32;1.27;;;;;;;;;;5004905;28;20053;-72
2023/12/22 02:53:34;;;;;;;7.90;1.02;;;;;;;;;;5020933;28;20065;-74
2023/12/22 02:56:02;;;;;;;6.32;0.70;;;;;;;;;;5016452;28;20061;-75
2023/12/22 02:58:29;;;;;;;4.25;0.57;;;;;;;;;;5027648;28;20060;-71
2023/12/22 03:00:56;;;;;;;7.32;1.02;;;;;;;;;;5007411;28;20056;-80
2023/12/22 03:03:22;;;;;;;7.35;0.90;;;;;;;;;;5004702;28;20214;-73
2023/12/22 03:05:49;;;;;;;10.63;1.85;;;;;;;;;;5043962;28;20053;-77
2023/12/22 03:08:16;;;;;;;15.63;1.33;;;;;;;;;;5014706;28;20049;-76
2023/12/22 03:10:43;;;;;;;6.38;1.23;;;;;;;;;;5041511;28;20136;-70
2023/12/22 03:13:11;;;;;;;6.57;1.33;;;;;;;;;;5047029;28;20208;-70
2023/12/22 03:15:38;;;;;;;11.82;2.22;;;;;;;;;;5014945;28;20088;-74
2023/12/22 03:18:05;;;;;;;4.22;0.93;;;;;;;;;;5036989;28;20127;-66
2023/12/22 03:20:32;;;;;;;12.43;1.98;;;;;;;;;;5020881;28;20052;-72
2023/12/22 03:22:59;;;;;;;9.65;0.90;;;;;;;;;;5023893;28;20135;-71
2023/12/22 03:25:25;;;;;;;9.30;1.20;;;;;;;;;;5021367;28;20118;-69
2023/12/22 03:27:52;;;;;;;11.98;1.33;;;;;;;;;;5036304;28;20056;-72
2023/12/22 03:30:21;;;;;;;3.35;0.70;;;;;;;;;;5025014;28;20059;-74
2023/12/22 03:32:47;;;;;;;3.97;1.27;;;;;;;;;;5024524;28;20115;-74
2023/12/22 03:35:14;;;;;;;13.40;1.45;;;;;;;;;;5024147;28;20048;-72
2023/12/22 03:37:41;;;;;;;11.73;1.65;;;;;;;;;;5025888;28;20060;-73
2023/12/22 03:40:10;;;;;;;8.52;1.20;;;;;;;;;;5056008;28;20301;-70
2023/12/22 03:42:36;;;;;;;13.27;1.33;;;;;;;;;;5027876;28;20063;-74
2023/12/22 03:45:03;;;;;;;5.55;1.10;;;;;;;;;;5024905;28;20056;-71
2023/12/22 03:47:31;;;;;;;5.60;0.80;;;;;;;;;;5062766;28;20076;-75
2023/12/22 03:50:02;;;;;;;16.88;1.33;;;;;;;;;;5061294;28;20053;-74
2023/12/22 03:52:29;;;;;;;12.90;1.45;;;;;;;;;;5045395;28;20045;-74
2023/12/22 03:54:55;;;;;;;12.20;2.05;;;;;;;;;;5023508;28;20200;-68
2023/12/22 03:57:22;;;;;;;8.55;1.02;;;;;;;;;;5035610;28;20057;-66
2023/12/22 03:59:49;;;;;;;4.03;1.02;;;;;;;;;;5028042;28;20076;-71
2023/12/22 04:02:16;;;;;;;1.92;0.75;;;;;;;;;;5025457;28;20326;-73
2023/12/22 04:04:44;;;;;;;2.63;1.02;;;;;;;;;;5006329;28;20045;-71
2023/12/22 04:07:11;;;;;;;6.65;0.88;;;;;;;;;;5025368;28;20151;-74
2023/12/22 04:09:38;;;;;;;0.63;0.38;;;;;;;;;;5023942;28;20103;-72
2023/12/22 04:12:05;;;;;;;4.47;0.70;;;;;;;;;;4995865;28;20060;-66
2023/12/22 04:14:32;;;;;;;3.17;0.77;;;;;;;;;;4983451;28;20069;-77
2023/12/22 04:16:59;;;;;;;3.47;1.23;;;;;;;;;;5039825;28;20148;-66
2023/12/22 04:19:26;;;;;;;2.00;0.40;;;;;;;;;;5009942;28;20059;-73
2023/12/22 04:21:54;;;;;;;2.55;0.60;;;;;;;;;;5005618;28;20049;-70
2023/12/22 04:24:21;;;;;;;10.27;0.63;;;;;;;;;;5006414;28;20118;-68
2023/12/22 04:26:48;;;;;;;3.72;0.65;;;;;;;;;;5032587;28;20073;-71
2023/12/22 04:29:15;;;;;;;4.28;0.77;;;;;;;;;;5009998;28;20176;-68
2023/12/22 04:31:42;;;;;;;3.22;0.60;;;;;;;;;;5023569;28;20128;-71
2023/12/22 04:34:10;;;;;;;5.72;0.90;;;;;;;;;;5007010;28;20068;-73
2023/12/22 04:36:37;;;;;;;1.98;0.28;;;;;;;;;;5005331;28;20061;-67
2023/12/22 04:39:05;;;;;;;3.10;0.50;;;;;;;;;;5028522;28;20061;-67
2023/12/22 04:41:32;;;;;;;4.43;0.85;;;;;;;;;;5006277;28;20049;-67
2023/12/22 04:44:02;;;;;;;12.13;1.23;;;;;;;;;;5010437;28;20151;-69
2023/12/22 04:46:29;;;;;;;8.70;2.05;;;;;;;;;;5021721;28;20049;-69
2023/12/22 04:48:56;;;;;;;7.57;1.52;;;;;;;;;;5005735;28;20099;-68
2023/12/22 04:51:22;;;;;;;12.32;2.30;;;;;;;;;;5023445;28;20061;-74
2023/12/22 04:53:49;;;;;;;12.02;1.85;;;;;;;;;;5035999;28;20068;-72
2023/12/22 04:56:17;;;;;;;13.48;2.50;;;;;;;;;;5035211;28;20053;-70
2023/12/22 04:58:44;;;;;;;8.20;2.13;;;;;;;;;;5024654;28;20061;-69
2023/12/22 05:01:11;;;;;;;12.80;2.20;;;;;;;;;;5024139;28;20060;-68
2023/12/22 05:03:37;;;;;;;20.63;3.63;;;;;;;;;;5001457;28;20057;-70
2023/12/22 05:06:04;;;;;;;8.40;1.20;;;;;;;;;;5000616;28;20049;-71
2023/12/22 05:08:31;;;;;;;9.30;1.50;;;;;;;;;;5012435;28;20057;-73
2023/12/22 05:10:58;;;;;;;11.50;1.55;;;;;;;;;;5009986;28;20104;-69
2023/12/22 05:13:26;;;;;;;9.75;1.63;;;;;;;;;;5023554;28;20081;-74
2023/12/22 05:15:53;;;;;;;;;;;;;;;;;;4991654;28;20064;-69
2023/12/22 05:18:19;;;;;;;11.10;1.48;;;;;;;;;;4999141;28;20005;-72
2023/12/22 05:20:46;;;;;;;19.60;1.63;;;;;;;;;;5005122;28;20296;-66
2023/12/22 05:23:13;;;;;;;6.03;1.15;;;;;;;;;;5005862;28;20057;-68
2023/12/22 05:25:40;;;;;;;20.83;1.75;;;;;;;;;;5008860;28;20136;-75
2023/12/22 05:28:07;;;;;;;9.65;1.83;;;;;;;;;;5002656;28;20140;-72
2023/12/22 05:30:35;;;;;;;7.78;1.35;;;;;;;;;;5002053;28;20045;-72
2023/12/22 05:33:01;;;;;;;8.82;1.75;;;;;;;;;;5004914;28;20049;-75
2023/12/22 05:35:28;;;;;;;9.15;1.90;;;;;;;;;;5001494;28;20050;-70
2023/12/22 05:37:55;;;;;;;12.52;1.73;;;;;;;;;;5005728;28;20057;-69
2023/12/22 05:40:22;;;;;;;7.65;1.63;;;;;;;;;;5022387;28;20064;-74
2023/12/22 05:42:48;;;;;;;6.25;1.23;;;;;;;;;;5023405;28;20170;-66
2023/12/22 05:45:16;;;;;;;6.20;1.33;;;;;;;;;;5010842;28;20063;-67
2023/12/22 05:47:44;;;;;;;11.68;1.38;;;;;;;;;;5010595;28;20116;-73
2023/12/22 05:50:13;;;;;;;17.17;1.75;;;;;;;;;;5000902;28;20076;-70
2023/12/22 05:52:40;;;;;;;12.93;1.88;;;;;;;;;;5037015;28;20057;-70
2023/12/22 05:55:08;;;;;;;10.50;1.92;;;;;;;;;;5033117;28;20053;-69
2023/12/22 05:57:35;;;;;;;7.10;1.88;;;;;;;;;;5010066;28;20136;-68
2023/12/22 06:00:04;;;;;;;5.78;1.25;;;;;;;;;;5002135;28;20053;-71
2023/12/22 06:02:31;;;;;;;6.82;1.30;;;;;;;;;;5010637;28;20053;-66
2023/12/22 06:05:03;;;;;;;11.25;2.08;;;;;;;;;;5002766;28;20103;-72
2023/12/22 06:07:30;;;;;;;10.32;2.00;;;;;;;;;;5030298;28;20061;-75
2023/12/22 06:09:57;;;;;;;7.95;1.73;;;;;;;;;;5005270;28;20045;-66
2023/12/22 06:12:24;;;;;;;12.98;1.88;;;;;;;;;;4996799;28;20049;-73
2023/12/22 06:14:50;;;;;;;12.00;1.80;;;;;;;;;;4994422;28;20053;-73
2023/12/22 06:17:17;;;;;;;9.68;1.73;;;;;;;;;;5003211;28;20057;-72
2023/12/22 06:19:44;;;;;;;4.85;1.10;;;;;;;;;;5002395;28;20056;-71
2023/12/22 06:22:14;;;;;;;7.47;1.50;;;;;;;;;;4998074;28;20045;-70
2023/12/22 06:24:41;;;;;;;8.32;1.27;;;;;;;;;;5020550;28;20092;-68
2023/12/22 06:27:07;;;;;;;13.32;1.88;;;;;;;;;;5001869;28;20076;-76
2023/12/22 06:29:36;;;;;;;14.35;1.50;;;;;;;;;;5035256;28;20064;-73
2023/12/22 06:32:05;;;;;;;;;;;;;;;;;;5003523;28;20202;-71
2023/12/22 06:34:32;;;;;;;7.90;1.08;;;;;;;;;;4989781;28;19928;-75
2023/12/22 06:36:59;;;;;;;5.50;0.77;;;;;;;;;;4995797;28;20069;-74
2023/12/22 06:39:27;;;;;;;11.02;1.35;;;;;;;;;;5026915;28;20053;-71
2023/12/22 06:41:54;;;;;;;8.82;1.63;;;;;;;;;;5002885;28;20049;-74
2023/12/22 06:44:20;;;;;;;12.05;1.10;;;;;;;;;;4978055;28;21011;-75
2023/12/22 06:46:47;;;;;;;6.90;1.23;;;;;;;;;;5003394;28;20132;-70
2023/12/22 06:49:14;;;;;;;9.30;1.63;;;;;;;;;;5001963;28;20053;-68
2023/12/22 06:51:41;;;;;;;6.90;1.38;;;;;;;;;;5001172;28;20054;-72
2023/12/22 06:54:08;;;;;;;12.70;1.45;;;;;;;;;;4941172;28;20970;-70
2023/12/22 06:56:35;;;;;;;15.95;2.10;;;;;;;;;;5004279;28;20095;-71
2023/12/22 06:59:03;;;;;;;11.07;1.70;;;;;;;;;;5039576;28;20055;-71
2023/12/22 07:01:31;;;;;;;12.75;1.50;;;;;;;;;;4990386;28;20061;-72
2023/12/22 07:04:00;;;;;;;9.07;2.65;;;;;;;;;;5001977;28;20048;-69
2023/12/22 07:06:27;;;;;;;8.05;1.35;;;;;;;;;;5038810;28;20076;-69
2023/12/22 07:09:29;;;;;;;10.10;1.52;;;;;;;;;;5022413;28;20047;-70
2023/12/22 07:11:58;;;;;;;8.18;1.45;;;;;;;;;;5013682;28;20156;-71
2023/12/22 07:14:25;;;;;;;3.53;1.02;;;;;;;;;;5008556;28;20078;-66
2023/12/22 07:16:52;;;;;;;14.88;1.80;;;;;;;;;;5026927;28;20061;-71
2023/12/22 07:19:18;;;;;;;13.18;2.17;;;;;;;;;;5027187;28;20075;-68
2023/12/22 07:21:45;;;;;;;15.02;1.80;;;;;;;;;;5026593;28;20087;-70
2023/12/22 07:24:12;;;;;;;16.65;1.98;;;;;;;;;;4985887;28;20125;-69
2023/12/22 07:26:38;;;;;;;7.85;1.50;;;;;;;;;;5037249;28;20063;-69
2023/12/22 07:29:07;;;;;;;11.85;1.98;;;;;;;;;;5039152;28;20064;-68
2023/12/22 07:31:34;;;;;;;11.75;1.98;;;;;;;;;;5026886;28;20053;-69
2023/12/22 07:34:01;;;;;;;10.73;1.83;;;;;;;;;;5021483;28;20049;-69
2023/12/22 07:36:28;;;;;;;10.48;1.88;;;;;;;;;;5031258;28;20068;-65
2023/12/22 07:38:57;;;;;;;14.82;2.17;;;;;;;;;;5045094;28;20056;-69
2023/12/22 07:41:23;;;;;;;15.45;2.47;;;;;;;;;;5027315;28;20052;-66
2023/12/22 07:43:51;;;;;;;12.88;2.00;;;;;;;;;;5042157;28;20052;-70
2023/12/22 07:46:23;;;;;;;14.85;1.90;;;;;;;;;;4997209;28;20470;-69
2023/12/22 07:48:50;;;;;;;20.08;2.13;;;;;;;;;;5026037;28;20112;-68
2023/12/22 07:51:17;;;;;;;11.50;2.72;;;;;;;;;;5056581;28;20041;-66
2023/12/22 07:53:44;;;;;;;15.05;2.45;;;;;;;;;;5043239;28;20040;-71
2023/12/22 07:56:11;;;;;;;15.20;2.63;;;;;;;;;;5027882;28;20290;-68
2023/12/22 07:58:38;;;;;;;10.65;1.98;;;;;;;;;;5027011;28;20056;-71
2023/12/22 08:01:06;;;;;;;23.98;2.88;;;;;;;;;;5043862;28;20052;-69
2023/12/22 08:03:34;;;;;;;15.23;1.85;;;;;;;;;;5031111;28;20129;-69
2023/12/22 08:06:01;;;;;;;17.77;3.08;;;;;;;;;;4938776;28;20073;-66
2023/12/22 08:08:28;;;;;;;14.75;2.03;;;;;;;;;;4998556;28;20127;-69
2023/12/22 08:10:55;;;;;;;5.25;2.03;;;;;;;;;;5023156;28;20091;-69
2023/12/22 08:13:21;;;;;;;12.45;1.80;;;;;;;;;;5001800;28;20065;-71
2023/12/22 08:15:48;;;;;;;14.52;2.33;;;;;;;;;;4993236;28;20057;-68
2023/12/22 08:18:16;;;;;;;13.38;2.25;;;;;;;;;;4999470;28;20049;-68
2023/12/22 08:20:45;;;;;;;20.20;2.30;;;;;;;;;;5038374;28;20042;-69
2023/12/22 08:23:13;;;;;;;11.50;2.10;;;;;;;;;;5005200;28;20053;-69
2023/12/22 08:25:43;;;;;;;9.25;1.58;;;;;;;;;;4973067;28;20060;-72
2023/12/22 08:28:12;;;;;;;4.95;1.38;;;;;;;;;;4997888;28;20061;-68
2023/12/22 08:30:38;;;;;;;12.32;1.63;;;;;;;;;;5005365;28;20068;-68
2023/12/22 08:33:05;;;;;;;11.65;1.88;;;;;;;;;;5033992;28;20124;-72
2023/12/22 08:35:32;;;;;;;24.40;2.53;;;;;;;;;;4985914;28;20078;-69
2023/12/22 08:38:00;;;;;;;26.33;2.63;;;;;;;;;;5015174;28;20115;-68
2023/12/22 08:40:27;;;;;;;18.88;3.05;;;;;;;;;;4998560;28;20077;-71
2023/12/22 08:42:59;;;;;;;8.68;1.98;;;;;;;;;;5003229;28;20046;-71
2023/12/22 08:45:28;;;;;;;13.02;2.00;;;;;;;;;;4999934;28;20064;-68
2023/12/22 08:47:56;;;;;;;11.95;1.52;;;;;;;;;;5000154;28;20053;-69
2023/12/22 08:50:23;;;;;;;15.32;2.20;;;;;;;;;;5023696;28;20137;-75
2023/12/22 08:52:49;;;;;;;11.10;1.20;;;;;;;;;;4997022;28;20107;-69
2023/12/22 08:55:18;;;;;;;7.07;1.88;;;;;;;;;;5015649;28;20107;-72
2023/12/22 08:57:45;;;;;;;12.15;2.70;;;;;;;;;;5002175;28;20064;-73
2023/12/22 09:00:12;;;;;;;12.82;2.28;;;;;;;;;;5025035;28;20251;-68
2023/12/22 09:02:39;;;;;;;6.43;1.30;;;;;;;;;;5002416;28;20098;-68
2023/12/22 09:05:07;;;;;;;5.63;1.30;;;;;;;;;;4980862;28;20085;-71
2023/12/22 09:07:34;;;;;;;5.82;0.88;;;;;;;;;;5003303;28;20061;-69
2023/12/22 09:10:00;;;;;;;15.75;2.13;;;;;;;;;;4996820;28;20049;-67
2023/12/22 09:12:29;;;;;;;6.82;1.20;;;;;;;;;;5001405;28;20162;-67
2023/12/22 09:14:58;;;;;;;2.42;0.80;;;;;;;;;;4995854;28;20154;-68
2023/12/22 09:17:27;;;;;;;8.00;1.02;;;;;;;;;;5010365;28;20115;-67
2023/12/22 09:19:54;;;;;;;7.75;1.55;;;;;;;;;;5028809;28;20081;-70
2023/12/22 09:22:22;;;;;;;11.50;1.95;;;;;;;;;;5030963;28;20227;-69
2023/12/22 09:24:49;;;;;;;3.35;1.00;;;;;;;;;;4999732;28;20104;-70
2023/12/22 09:27:16;;;;;;;4.93;0.88;;;;;;;;;;5001815;28;20069;-71
2023/12/22 09:29:44;;;;;;;4.95;1.25;;;;;;;;;;5005359;28;20076;-71
2023/12/22 09:32:11;;;;;;;7.68;1.90;;;;;;;;;;4999921;28;20250;-68
2023/12/22 09:34:40;;;;;;;3.63;1.52;;;;;;;;;;4979288;28;20058;-72
2023/12/22 09:37:07;;;;;;;4.10;0.70;;;;;;;;;;4983734;28;20045;-76
2023/12/22 09:39:34;;;;;;;1.55;0.63;;;;;;;;;;5001511;28;20049;-73
2023/12/22 09:42:01;;;;;;;2.80;0.57;;;;;;;;;;5034691;28;20033;-68
2023/12/22 09:44:38;;;;;;;0.98;0.52;;;;;;;;;;4961221;28;20234;-70
2023/12/22 09:47:08;;;;;;;1.95;0.32;;;;;;;;;;5032590;28;20046;-71
2023/12/22 09:49:35;;;;;;;1.02;0.40;;;;;;;;;;5002382;28;20064;-72
2023/12/22 09:52:02;;;;;;;0.28;0.15;;;;;;;;;;4995374;28;20062;-71
2023/12/22 09:54:31;;;;;;;2.47;0.50;;;;;;;;;;5000249;28;20184;-75
2023/12/22 09:56:58;;;;;;;1.00;0.32;;;;;;;;;;5004524;28;20045;-66
2023/12/22 09:59:26;;;;;;;5.72;0.45;;;;;;;;;;5003750;28;20053;-76
2023/12/22 10:01:56;;;;;;;1.45;0.40;;;;;;;;;;5001820;28;20107;-78
2023/12/22 10:04:25;;;;;;;0.45;0.30;;;;;;;;;;4995672;28;20048;-73
2023/12/22 10:06:53;;;;;;;2.65;0.47;;;;;;;;;;5012268;28;20064;-69
2023/12/22 10:09:20;;;;;;;;;;;;;;;;;;5022518;28;20059;-80
2023/12/22 10:11:51;;;;;;;0.77;0.43;;;;;;;;;;5022922;28;19983;-72
2023/12/22 10:14:22;;;;;;;3.42;0.55;;;;;;;;;;5012130;28;20065;-72
2023/12/22 10:16:49;;;;;;;4.13;0.70;;;;;;;;;;5015319;28;20060;-76
2023/12/22 10:19:16;;;;;;;3.80;0.75;;;;;;;;;;5024294;28;20110;-76
2023/12/22 10:21:44;;;;;;;3.17;0.70;;;;;;;;;;5049768;28;20041;-69
2023/12/22 10:24:39;;;;;;;3.78;0.80;;;;;;;;;;5034531;28;20268;-77
2023/12/22 10:27:06;;;;;;;2.15;0.70;;;;;;;;;;5024547;28;20052;-70
2023/12/22 10:29:33;;;;;;;5.22;0.45;;;;;;;;;;5020968;28;20117;-74
2023/12/22 10:32:02;;;;;;;0.60;0.30;;;;;;;;;;5018409;28;20033;-74
2023/12/22 10:34:29;;;;;;;1.27;0.45;;;;;;;;;;5006688;28;20116;-71
2023/12/22 10:36:59;;;;;;;2.17;0.45;;;;;;;;;;5045550;28;20053;-74
2023/12/22 10:39:29;;;;;;;4.22;0.75;;;;;;;;;;5031316;28;20139;-69
2023/12/22 10:41:56;;;;;;;4.22;0.82;;;;;;;;;;5021673;28;20044;-69
2023/12/22 10:44:27;;;;;;;5.93;0.95;;;;;;;;;;5003269;28;20157;-72
2023/12/22 10:46:54;;;;;;;2.83;0.45;;;;;;;;;;5017354;28;20041;-73
2023/12/22 10:49:22;;;;;;;2.00;0.38;;;;;;;;;;5047577;28;20059;-70
2023/12/22 10:51:48;;;;;;;4.60;0.45;;;;;;;;;;5028030;28;20057;-73
2023/12/22 10:54:17;;;;;;;3.55;0.50;;;;;;;;;;4986847;28;20062;-70
2023/12/22 10:56:44;;;;;;;;;;;;;;;;;;5005509;28;20103;-71
2023/12/22 10:59:11;;;;;;;7.85;1.00;;;;;;;;;;5021352;28;19925;-74
2023/12/22 11:01:39;;;;;;;6.10;0.38;;;;;;;;;;5019530;28;20053;-74
2023/12/22 11:04:07;;;;;;;2.45;0.68;;;;;;;;;;5014573;28;20056;-73
2023/12/22 11:06:36;;;;;;;;;;;;;;;;;;5002389;28;20048;-70
2023/12/22 11:09:07;;;;;;;5.60;0.95;;;;;;;;;;5046511;28;19956;-73
2023/12/22 11:11:37;;;;;;;2.42;0.63;;;;;;;;;;5016572;28;20053;-71
2023/12/22 11:14:05;;;;;;;1.27;0.75;;;;;;;;;;5012461;28;20195;-76
2023/12/22 11:16:33;;;;;;;3.85;0.63;;;;;;;;;;4992457;28;20124;-72
2023/12/22 11:19:02;;;;;;;10.77;1.85;;;;;;;;;;5019036;28;20441;-74
2023/12/22 11:21:29;;;;;;;;;;;;;;;;;;5053115;28;20049;-75
2023/12/22 11:23:57;;;;;;;10.05;1.33;;;;;;;;;;5017935;28;19924;-75
2023/12/22 11:26:25;;;;;;;6.80;1.50;;;;;;;;;;5002668;28;20045;-73
2023/12/22 11:28:57;;;;;;;4.13;0.93;;;;;;;;;;5024291;28;20043;-70
2023/12/22 11:31:26;;;;;;;8.57;1.02;;;;;;;;;;5019852;28;20049;-73
2023/12/22 11:33:53;;;;;;;5.93;1.08;;;;;;;;;;5019545;28;20060;-72
2023/12/22 11:36:20;;;;;;;5.25;0.88;;;;;;;;;;5006927;28;20049;-71
2023/12/22 11:38:47;;;;;;;9.00;1.25;;;;;;;;;;5043297;28;20117;-75
2023/12/22 11:41:24;;;;;;;3.83;1.05;;;;;;;;;;5052707;28;20198;-69
2023/12/22 11:44:00;;;;;;;7.28;0.82;;;;;;;;;;4997168;28;20046;-70
2023/12/22 11:46:28;;;;;;;8.20;2.05;;;;;;;;;;4997058;28;20059;-71
2023/12/22 11:48:55;;;;;;;7.60;1.55;;;;;;;;;;5022093;28;20056;-71
2023/12/22 11:51:26;;;;;;;9.55;1.73;;;;;;;;;;5020612;28;20052;-69
2023/12/22 11:53:52;;;;;;;13.35;2.40;;;;;;;;;;5034870;28;20060;-71
2023/12/22 11:56:20;;;;;;;10.10;2.20;;;;;;;;;;4989588;28;21563;-71
2023/12/22 11:58:51;;;;;;;4.30;1.10;;;;;;;;;;5021156;28;20064;-70
2023/12/22 12:01:21;;;;;;;10.90;2.05;;;;;;;;;;5039839;28;20086;-68
2023/12/22 12:03:52;;;;;;;9.05;2.17;;;;;;;;;;5022057;28;20060;-67
2023/12/22 12:06:31;;;;;;;9.77;1.90;;;;;;;;;;5002335;28;20102;-67
2023/12/22 12:08:59;;;;;;;2.45;0.47;;;;;;;;;;5023053;28;20161;-67
2023/12/22 12:12:04;;;;;;;1.90;0.63;;;;;;;;;;5040083;28;20067;-69
2023/12/22 12:14:34;;;;;;;12.52;1.50;;;;;;;;;;5012912;28;20070;-68
2023/12/22 12:17:07;;;;;;;11.05;1.38;;;;;;;;;;5020640;28;20056;-68
2023/12/22 12:19:59;;;;;;;;;;;;;;;;;;;;;
2023/12/22 12:22:27;;;;;;;12.50;1.35;;;;;;;;;;5052578;28;20126;-69
2023/12/22 12:24:55;;;;;;;9.48;1.50;;;;;;;;;;5006585;28;20057;-73
2023/12/22 12:27:24;;;;;;;10.73;2.50;;;;;;;;;;5015963;28;20053;-70
2023/12/22 12:29:53;;;;;;;7.65;1.30;;;;;;;;;;5034640;28;20065;-74
2023/12/22 12:32:24;;;;;;;9.40;1.23;;;;;;;;;;5020749;28;20131;-74
2023/12/22 12:34:52;;;;;;;7.68;1.30;;;;;;;;;;5031971;28;20144;-75
2023/12/22 12:37:21;;;;;;;2.00;0.90;;;;;;;;;;5028189;28;20052;-73
2023/12/22 12:39:53;;;;;;;9.80;1.40;;;;;;;;;;5040650;28;20134;-71
2023/12/22 12:42:24;;;;;;;8.55;0.93;;;;;;;;;;5022013;28;20049;-71
2023/12/22 12:44:53;;;;;;;5.18;0.82;;;;;;;;;;5018529;28;20060;-70
2023/12/22 12:47:22;;;;;;;4.32;0.95;;;;;;;;;;5017829;28;20072;-70
2023/12/22 12:49:59;;;;;;;16.20;1.15;;;;;;;;;;5024197;28;20048;-68
2023/12/22 12:52:26;;;;;;;7.78;1.05;;;;;;;;;;5046429;28;20092;-70
2023/12/22 12:54:53;;;;;;;4.85;0.88;;;;;;;;;;5019795;28;20061;-72
2023/12/22 12:57:21;;;;;;;4.82;0.60;;;;;;;;;;5018782;28;20103;-74
2023/12/22 12:59:50;;;;;;;8.27;1.27;;;;;;;;;;5025460;28;20053;-69
2023/12/22 13:02:18;;;;;;;5.25;0.70;;;;;;;;;;5020367;28;20065;-71
2023/12/22 13:04:46;;;;;;;9.75;1.52;;;;;;;;;;5006638;28;20091;-75
2023/12/22 13:07:13;;;;;;;7.28;0.93;;;;;;;;;;4990822;28;20049;-72
2023/12/22 13:09:42;;;;;;;11.63;1.50;;;;;;;;;;5028041;28;20138;-70
2023/12/22 13:12:10;;;;;;;11.02;2.17;;;;;;;;;;5038756;28;20102;-72
2023/12/22 13:14:37;;;;;;;9.10;1.27;;;;;;;;;;5022264;28;20060;-73
2023/12/22 13:17:04;;;;;;;8.40;1.10;;;;;;;;;;5009052;28;20061;-72
2023/12/22 13:19:38;;;;;;;13.70;1.13;;;;;;;;;;5024469;28;20045;-72
2023/12/22 13:22:07;;;;;;;3.97;0.55;;;;;;;;;;5019372;28;20067;-68
2023/12/22 13:24:34;;;;;;;7.47;1.15;;;;;;;;;;5011416;28;20056;-69
2023/12/22 13:27:03;;;;;;;3.63;0.55;;;;;;;;;;5000562;28;20055;-69
2023/12/22 13:29:31;;;;;;;4.85;0.70;;;;;;;;;;5019006;28;20240;-69
2023/12/22 13:31:59;;;;;;;11.37;1.20;;;;;;;;;;5022960;28;20048;-71
2023/12/22 13:34:29;;;;;;;5.47;1.13;;;;;;;;;;5026001;28;20050;-71
2023/12/22 13:36:56;;;;;;;4.40;1.35;;;;;;;;;;4984507;28;20073;-71
2023/12/22 13:39:29;;;;;;;2.88;0.80;;;;;;;;;;5052341;28;20052;-73
2023/12/22 13:41:56;;;;;;;4.72;1.05;;;;;;;;;;5019218;28;20049;-72
2023/12/22 13:44:23;;;;;;;6.32;1.15;;;;;;;;;;5016858;28;20117;-70
2023/12/22 13:46:50;;;;;;;3.15;0.60;;;;;;;;;;4983360;28;20048;-68
2023/12/22 13:49:18;;;;;;;3.00;0.77;;;;;;;;;;5014610;28;20090;-76
2023/12/22 13:51:47;;;;;;;6.20;1.10;;;;;;;;;;5021406;28;20052;-73
2023/12/22 13:54:14;;;;;;;6.65;0.88;;;;;;;;;;5035153;28;20206;-74
2023/12/22 13:56:46;;;;;;;7.32;1.13;;;;;;;;;;5016302;28;20053;-74
2023/12/22 13:59:13;;;;;;;3.35;0.52;;;;;;;;;;5039220;28;20131;-70
2023/12/22 14:01:40;;;;;;;4.32;0.50;;;;;;;;;;5020904;28;20085;-70
2023/12/22 14:04:10;;;;;;;2.78;0.50;;;;;;;;;;5012208;28;20049;-73
2023/12/22 14:06:38;;;;;;;0.52;0.20;;;;;;;;;;5018334;28;20070;-74
2023/12/22 14:09:05;;;;;;;2.80;0.50;;;;;;;;;;5020585;28;20109;-69
2023/12/22 14:11:32;;;;;;;7.28;1.15;;;;;;;;;;5018826;28;20083;-69
2023/12/22 14:14:01;;;;;;;1.88;0.55;;;;;;;;;;5023274;28;20048;-74
2023/12/22 14:16:27;;;;;;;11.10;1.13;;;;;;;;;;4981994;28;20063;-68
2023/12/22 14:18:54;;;;;;;3.95;0.75;;;;;;;;;;5021089;28;20059;-67
2023/12/22 14:21:21;;;;;;;0.85;0.57;;;;;;;;;;5023217;28;20108;-71
2023/12/22 14:23:48;;;;;;;5.95;0.68;;;;;;;;;;5020547;28;20057;-75
2023/12/22 14:26:16;;;;;;;7.88;1.15;;;;;;;;;;5014405;28;20064;-69
2023/12/22 14:28:43;;;;;;;2.97;0.67;;;;;;;;;;5043346;28;20053;-74
2023/12/22 14:31:11;;;;;;;1.90;0.50;;;;;;;;;;5019917;28;20307;-69
2023/12/22 14:33:38;;;;;;;0.90;0.30;;;;;;;;;;5022880;28;20083;-72
2023/12/22 14:36:05;;;;;;;11.18;1.05;;;;;;;;;;4998347;28;20172;-71
2023/12/22 14:38:32;;;;;;;0.57;0.35;;;;;;;;;;5021672;28;20060;-72
2023/12/22 14:40:58;;;;;;;6.57;0.95;;;;;;;;;;5053986;28;20171;-72
2023/12/22 14:43:25;;;;;;;4.00;0.60;;;;;;;;;;5046735;28;20049;-72
2023/12/22 14:45:53;;;;;;;3.00;0.75;;;;;;;;;;4996860;28;20083;-69
2023/12/22 14:48:22;;;;;;;14.07;1.23;;;;;;;;;;5044945;28;20061;-74